Time;durP1;ratioP1;P1;durP2;ratioP2;P2;SDS_P1;SDS_P2;PMS_P1;PMS_P2;Temp;Humidity;BMP_temperature;BMP_pressure;BME280_temperature;BME280_humidity;BME280_pressure;Samples;Min_cycle;Max_cycle;Signal;HPM_P1;HPM_P2
2022/08/10 00:05:05;;;;;;;6.10;2.55;;;;;;;14.45;85.92;102412.94;10401855;28;20033;-74
2022/08/10 00:10:06;;;;;;;5.55;2.72;;;;;;;14.29;86.72;102407.59;10383846;28;20490;-74
2022/08/10 00:15:07;;;;;;;6.45;2.58;;;;;;;14.21;86.52;102401.88;10358578;28;20164;-74
2022/08/10 00:20:09;;;;;;;8.80;2.70;;;;;;;14.09;87.02;102418.78;10347077;28;20037;-74
2022/08/10 00:25:09;;;;;;;3.85;2.47;;;;;;;14.01;87.52;102404.28;10382398;28;20421;-74
2022/08/10 00:30:10;;;;;;;7.82;3.85;;;;;;;14.01;88.03;102409.53;10399996;28;20041;-74
2022/08/10 00:35:11;;;;;;;4.85;2.88;;;;;;;13.98;87.80;102400.56;10398031;28;20477;-74
2022/08/10 00:40:12;;;;;;;5.93;3.30;;;;;;;14.00;87.96;102393.69;10401750;28;20046;-74
2022/08/10 00:45:12;;;;;;;5.25;3.38;;;;;;;13.95;88.41;102394.31;10398755;28;20461;-74
2022/08/10 00:50:13;;;;;;;4.93;2.50;;;;;;;13.83;88.33;102398.88;10400437;28;20065;-74
2022/08/10 00:55:13;;;;;;;20.08;4.60;;;;;;;13.71;88.72;102395.50;10397509;28;20040;-75
2022/08/10 01:00:14;;;;;;;4.43;2.17;;;;;;;13.66;89.08;102400.47;10398966;28;20041;-74
2022/08/10 01:05:14;;;;;;;5.30;3.60;;;;;;;13.56;89.00;102398.13;10364011;28;20038;-74
2022/08/10 01:10:27;;;;;;;5.78;3.08;;;;;;;13.53;89.75;102397.94;10400245;28;20054;-74
2022/08/10 01:15:31;;;;;;;6.18;3.08;;;;;;;13.55;90.62;102398.94;10397845;28;20137;-74
2022/08/10 01:20:38;;;;;;;6.70;3.83;;;;;;;13.64;91.37;102382.00;10399075;28;20477;-74
2022/08/10 01:26:08;;;;;;;7.47;2.83;;;;;;;13.67;91.36;102383.00;10353833;28;20431;-74
2022/08/10 01:31:11;;;;;;;5.15;2.92;;;;;;;13.64;91.99;102370.53;10381329;28;20045;-74
2022/08/10 01:36:15;;;;;;;10.30;3.63;;;;;;;13.67;91.86;102365.47;10396245;28;20168;-74
2022/08/10 01:41:18;;;;;;;17.73;4.82;;;;;;;13.60;92.25;102364.22;10382320;28;20049;-73
2022/08/10 01:46:18;;;;;;;5.97;3.38;;;;;;;13.56;92.12;102371.81;10380922;28;20048;-74
2022/08/10 01:51:25;;;;;;;5.18;3.50;;;;;;;13.50;92.38;102370.63;10396962;28;20038;-73
2022/08/10 01:56:28;;;;;;;4.85;3.17;;;;;;;13.42;92.96;102365.75;10397967;28;20045;-74
2022/08/10 02:01:31;;;;;;;9.63;2.97;;;;;;;13.38;94.24;102369.84;10398375;28;20065;-74
2022/08/10 02:06:37;;;;;;;11.40;5.13;;;;;;;13.31;93.97;102378.19;10381466;28;20359;-73
2022/08/10 02:11:38;;;;;;;8.63;3.85;;;;;;;13.25;94.16;102367.31;10399585;28;20099;-74
2022/08/10 02:16:38;;;;;;;6.53;3.47;;;;;;;13.27;95.71;102371.84;10401073;28;20120;-74
2022/08/10 02:21:39;;;;;;;7.18;3.35;;;;;;;13.20;95.45;102367.94;10405481;28;20033;-74
2022/08/10 02:26:43;;;;;;;7.90;4.85;;;;;;;13.11;95.55;102369.09;10376325;28;20034;-74
2022/08/10 02:31:43;;;;;;;7.53;4.03;;;;;;;13.07;96.09;102371.56;10404355;28;20063;-74
2022/08/10 02:36:48;;;;;;;5.40;3.85;;;;;;;13.01;96.74;102381.69;10403363;28;20033;-74
2022/08/10 02:42:07;;;;;;;12.38;4.80;;;;;;;12.97;97.22;102376.13;10371426;28;20041;-74
2022/08/10 02:47:10;;;;;;;7.07;4.25;;;;;;;12.98;97.37;102380.56;10385890;28;20042;-74
2022/08/10 02:52:15;;;;;;;7.38;5.70;;;;;;;12.96;97.55;102385.75;10402695;28;20037;-74
2022/08/10 02:57:18;;;;;;;6.68;4.47;;;;;;;12.91;98.61;102380.19;10378459;28;20045;-74
2022/08/10 03:02:27;;;;;;;8.50;4.18;;;;;;;12.82;98.73;102366.47;10385916;28;20037;-74
2022/08/10 03:07:31;;;;;;;11.93;4.93;;;;;;;12.76;99.00;102368.72;10388381;28;20473;-74
2022/08/10 03:12:32;;;;;;;9.00;5.18;;;;;;;12.71;100.00;102363.19;10385765;28;20049;-74
2022/08/10 03:17:32;;;;;;;11.43;5.40;;;;;;;12.72;100.00;102364.09;10400250;28;20445;-74
2022/08/10 03:22:33;;;;;;;8.95;5.63;;;;;;;12.70;100.00;102376.22;10404192;28;20048;-76
2022/08/10 03:27:34;;;;;;;12.10;6.70;;;;;;;12.66;100.00;102363.69;10391606;28;20497;-75
2022/08/10 03:32:34;;;;;;;9.88;5.20;;;;;;;12.63;100.00;102365.31;10368150;28;20033;-75
2022/08/10 03:37:38;;;;;;;12.65;8.23;;;;;;;12.59;100.00;102354.53;10366058;28;20561;-73
2022/08/10 03:42:40;;;;;;;9.77;7.30;;;;;;;12.54;100.00;102353.34;10385012;28;20088;-76
2022/08/10 03:47:40;;;;;;;11.15;7.25;;;;;;;12.41;100.00;102357.81;10367130;28;20033;-74
2022/08/10 03:52:41;;;;;;;10.43;7.00;;;;;;;12.34;100.00;102352.97;10366778;28;20045;-74
2022/08/10 03:57:41;;;;;;;10.48;5.72;;;;;;;12.28;100.00;102358.72;10380338;28;20034;-73
2022/08/10 04:02:42;;;;;;;10.20;6.50;;;;;;;12.32;100.00;102362.47;10384809;28;20076;-74
2022/08/10 04:07:43;;;;;;;11.52;6.90;;;;;;;12.31;100.00;102361.53;10366319;28;20098;-74
2022/08/10 04:12:43;;;;;;;33.60;22.02;;;;;;;12.38;100.00;102357.63;10367119;28;20034;-73
2022/08/10 04:17:44;;;;;;;12.43;8.02;;;;;;;12.39;100.00;102361.13;10400170;28;20128;-74
2022/08/10 04:22:46;;;;;;;12.68;7.43;;;;;;;12.33;100.00;102356.41;10383268;28;20041;-74
2022/08/10 04:27:47;;;;;;;12.60;8.02;;;;;;;12.47;100.00;102365.16;10365394;28;20572;-74
2022/08/10 04:32:49;;;;;;;10.93;7.75;;;;;;;12.56;100.00;102368.38;10364407;28;20040;-73
2022/08/10 04:37:50;;;;;;;;;;;;;;;12.65;100.00;102372.38;10392520;28;20041;-75
2022/08/10 04:42:50;;;;;;;9.90;7.80;;;;;;;12.67;100.00;102376.94;10381273;28;19932;-74
2022/08/10 04:47:51;;;;;;;10.48;8.65;;;;;;;12.70;100.00;102373.59;10362571;28;20091;-74
2022/08/10 04:52:53;;;;;;;10.65;7.63;;;;;;;12.90;100.00;102375.75;10381705;28;20057;-74
2022/08/10 04:57:53;;;;;;;12.02;8.52;;;;;;;13.05;100.00;102367.00;10378886;28;20033;-74
2022/08/10 05:02:54;;;;;;;9.63;7.47;;;;;;;13.27;100.00;102366.59;10381700;28;20057;-74
2022/08/10 05:07:54;;;;;;;15.23;7.13;;;;;;;13.45;100.00;102358.03;10380118;28;20045;-73
2022/08/10 05:12:55;;;;;;;10.70;7.68;;;;;;;13.58;100.00;102362.28;10397800;28;20515;-74
2022/08/10 05:17:56;;;;;;;11.88;6.97;;;;;;;13.69;100.00;102365.56;10379768;28;20048;-73
2022/08/10 05:22:57;;;;;;;10.57;8.75;;;;;;;13.78;100.00;102364.38;10398071;28;20410;-75
2022/08/10 05:27:57;;;;;;;11.32;6.90;;;;;;;14.01;100.00;102364.78;10378235;28;20084;-74
2022/08/10 05:32:58;;;;;;;10.75;7.40;;;;;;;14.13;100.00;102367.25;10397867;28;20389;-74
2022/08/10 05:37:58;;;;;;;10.57;6.30;;;;;;;14.31;99.60;102369.09;10375099;28;20128;-74
2022/08/10 05:42:59;;;;;;;10.93;7.07;;;;;;;14.51;98.82;102364.94;10365258;28;20539;-75
2022/08/10 05:47:59;;;;;;;10.43;7.20;;;;;;;14.95;99.01;102365.59;10380813;28;20442;-75
2022/08/10 05:53:00;;;;;;;9.10;6.25;;;;;;;16.15;96.56;102365.53;10387602;28;20050;-75
2022/08/10 05:58:00;;;;;;;9.73;5.70;;;;;;;17.76;85.36;102360.41;10371834;28;20056;-75
2022/08/10 06:03:03;;;;;;;8.65;5.07;;;;;;;19.35;74.68;102359.44;10389474;28;20040;-75
2022/08/10 06:08:18;;;;;;;8.07;4.35;;;;;;;20.85;68.74;102370.44;10379037;28;20057;-75
2022/08/10 06:18:38;;;;;;;7.78;4.53;;;;;;;23.01;57.12;102376.59;10418652;28;20068;-75
2022/08/10 06:23:38;;;;;;;8.17;4.80;;;;;;;23.43;55.28;102369.44;10409954;28;20036;-75
2022/08/10 06:28:58;;;;;;;11.53;4.33;;;;;;;23.54;54.05;102367.84;10392565;28;20090;-76
2022/08/10 06:33:58;;;;;;;6.32;5.03;;;;;;;23.95;53.81;102364.06;10424796;28;20041;-75
2022/08/10 06:38:59;;;;;;;8.77;5.70;;;;;;;24.26;51.76;102371.69;10407367;28;20048;-75
2022/08/10 06:44:03;;;;;;;7.37;5.73;;;;;;;24.23;51.54;102367.19;10426874;28;20044;-73
2022/08/10 06:49:05;;;;;;;9.30;4.45;;;;;;;24.39;51.24;102365.63;10426542;28;20060;-73
2022/08/10 06:54:06;;;;;;;12.40;5.20;;;;;;;24.55;52.47;102363.16;10417509;28;20056;-74
2022/08/10 06:59:09;;;;;;;8.23;4.30;;;;;;;25.64;48.25;102354.56;10406834;28;20604;-75
2022/08/10 07:04:14;;;;;;;8.88;4.38;;;;;;;26.25;47.23;102350.53;10423128;28;20049;-77
2022/08/10 07:09:15;;;;;;;6.25;4.55;;;;;;;26.68;45.14;102360.59;10424911;28;20053;-75
2022/08/10 07:14:16;;;;;;;6.18;4.20;;;;;;;27.34;43.48;102350.91;10405762;28;20140;-75
2022/08/10 07:19:17;;;;;;;7.28;4.45;;;;;;;27.76;41.46;102359.03;10408336;28;20477;-75
2022/08/10 07:24:17;;;;;;;6.53;3.88;;;;;;;28.16;40.87;102367.06;10407842;28;20041;-76
2022/08/10 07:29:18;;;;;;;7.78;4.97;;;;;;;27.58;42.13;102368.91;10406928;28;20187;-77
2022/08/10 07:34:19;;;;;;;8.98;5.05;;;;;;;27.54;41.39;102375.19;10408598;28;20033;-76
2022/08/10 07:39:20;;;;;;;11.75;5.13;;;;;;;27.27;42.72;102368.84;10422837;28;21559;-76
2022/08/10 07:44:21;;;;;;;7.80;4.75;;;;;;;27.98;41.71;102366.19;10424544;28;20041;-76
2022/08/10 07:49:24;;;;;;;7.10;3.58;;;;;;;29.63;36.66;102372.63;10390649;28;20132;-75
2022/08/10 07:54:26;;;;;;;9.18;4.05;;;;;;;30.54;35.64;102376.19;10383771;28;20037;-74
2022/08/10 07:59:34;;;;;;;8.85;4.45;;;;;;;31.04;34.37;102380.06;10384768;28;20041;-76
2022/08/10 08:04:35;;;;;;;7.78;4.10;;;;;;;31.57;33.02;102375.69;10383995;28;20037;-76
2022/08/10 08:09:37;;;;;;;8.35;4.63;;;;;;;31.97;32.84;102374.09;10368664;28;20061;-76
2022/08/10 08:14:38;;;;;;;7.47;4.35;;;;;;;32.16;32.25;102380.94;10382260;28;20041;-76
2022/08/10 08:19:39;;;;;;;5.82;3.45;;;;;;;32.51;30.91;102375.78;10367342;28;20378;-76
2022/08/10 08:24:40;;;;;;;5.68;3.45;;;;;;;31.83;31.80;102375.22;10400101;28;20132;-75
2022/08/10 08:29:42;;;;;;;7.10;3.67;;;;;;;32.20;30.79;102374.53;10421717;28;20136;-74
2022/08/10 08:34:43;;;;;;;8.10;3.28;;;;;;;32.02;31.45;102377.59;10421983;28;20040;-76
2022/08/10 08:39:44;;;;;;;7.47;3.55;;;;;;;32.56;29.18;102368.44;10379229;28;20091;-77
2022/08/10 08:45:04;;;;;;;9.02;3.65;;;;;;;32.92;30.16;102370.38;10399412;28;20053;-76
2022/08/10 08:50:23;;;;;;;15.10;9.53;;;;;;;33.77;27.93;102362.91;10381902;28;20038;-76
2022/08/10 08:55:50;;;;;;;5.95;3.45;;;;;;;33.94;27.69;102359.75;10359957;28;20504;-75
2022/08/10 09:01:00;;;;;;;6.10;3.60;;;;;;;33.24;29.09;102360.59;10396423;28;20046;-78
2022/08/10 09:06:14;;;;;;;8.10;4.03;;;;;;;34.11;29.46;102350.22;10399038;28;20044;-77
2022/08/10 09:11:38;;;;;;;9.25;3.42;;;;;;;34.47;28.02;102347.41;10397223;28;20397;-78
2022/08/10 09:16:58;;;;;;;5.18;3.28;;;;;;;34.45;27.90;102340.22;10393033;28;20060;-77
2022/08/10 09:22:12;;;;;;;5.63;3.78;;;;;;;35.16;28.21;102342.56;10397601;28;20615;-76
2022/08/10 09:27:28;;;;;;;8.25;4.57;;;;;;;35.80;23.44;102344.03;10388718;28;20511;-80
2022/08/10 09:33:11;;;;;;;12.48;3.80;;;;;;;34.58;25.92;102329.88;10406013;28;20141;-75
2022/08/10 09:38:35;;;;;;;32.50;4.13;;;;;;;34.94;25.22;102335.06;10386879;28;20057;-75
2022/08/10 09:44:11;;;;;;;9.27;3.28;;;;;;;35.29;25.91;102324.88;10399080;28;20038;-76
2022/08/10 09:49:40;;;;;;;4.97;3.47;;;;;;;35.92;23.32;102327.22;10367663;28;20045;-76
2022/08/10 09:55:11;;;;;;;9.85;3.10;;;;;;;36.22;23.73;102321.59;10386683;28;20492;-75
2022/08/10 10:00:15;;;;;;;5.05;2.95;;;;;;;36.11;23.02;102318.41;10405671;28;20083;-75
2022/08/10 10:05:45;;;;;;;7.65;3.10;;;;;;;36.81;22.07;102313.00;10388577;28;20048;-75
2022/08/10 10:10:48;;;;;;;8.70;3.42;;;;;;;36.91;20.79;102311.66;10406828;28;20082;-76
2022/08/10 10:15:58;;;;;;;10.60;3.78;;;;;;;36.66;21.17;102309.03;10407156;28;20041;-75
2022/08/10 10:21:19;;;;;;;7.13;3.07;;;;;;;35.61;24.22;102298.41;10403293;28;20040;-76
2022/08/10 10:26:43;;;;;;;8.38;3.72;;;;;;;35.94;22.35;102289.94;10404127;28;20037;-76
2022/08/10 10:31:45;;;;;;;6.38;3.80;;;;;;;36.57;21.86;102286.66;10404501;28;20084;-76
2022/08/10 10:36:45;;;;;;;8.57;5.30;;;;;;;36.47;22.74;102274.31;10420442;28;20053;-77
2022/08/10 10:41:57;;;;;;;10.73;2.63;;;;;;;36.96;22.40;102278.72;10412448;28;20132;-75
2022/08/10 10:47:13;;;;;;;11.48;4.35;;;;;;;36.57;23.12;102269.44;10444309;28;20045;-76
2022/08/10 10:52:36;;;;;;;8.02;3.20;;;;;;;36.61;20.63;102264.72;10410242;28;20467;-75
2022/08/10 10:57:45;;;;;;;6.13;3.25;;;;;;;36.74;20.84;102246.91;10425705;28;20053;-77
2022/08/10 11:03:05;;;;;;;5.93;3.65;;;;;;;36.42;20.86;102246.34;10406607;28;20556;-76
2022/08/10 11:08:20;;;;;;;7.13;2.92;;;;;;;36.45;21.09;102241.69;10426950;28;20041;-76
2022/08/10 11:13:34;;;;;;;4.22;3.03;;;;;;;36.67;19.67;102235.38;10427002;28;20171;-75
2022/08/10 11:18:53;;;;;;;6.40;3.85;;;;;;;37.37;19.67;102216.03;10424746;28;20041;-75
2022/08/10 11:24:24;;;;;;;8.05;2.95;;;;;;;35.86;21.02;102235.78;10425804;28;20481;-75
2022/08/10 11:29:35;;;;;;;5.93;3.53;;;;;;;35.91;21.22;102221.09;10443196;28;20037;-75
2022/08/10 11:35:11;;;;;;;6.75;4.05;;;;;;;36.63;21.88;102217.38;10408281;28;20411;-75
2022/08/10 11:40:15;;;;;;;7.72;4.20;;;;;;;37.32;20.85;102213.53;10412177;28;20039;-74
2022/08/10 11:45:18;;;;;;;7.38;2.85;;;;;;;36.72;20.17;102218.81;10385135;28;20036;-74
2022/08/10 11:50:24;;;;;;;7.50;3.83;;;;;;;36.74;19.55;102212.34;10407906;28;20507;-74
2022/08/10 11:55:28;;;;;;;6.53;3.22;;;;;;;37.08;19.04;102199.13;10441448;28;20576;-74
2022/08/10 12:00:30;;;;;;;6.68;2.95;;;;;;;36.70;19.60;102193.44;10385083;28;20138;-74
2022/08/10 12:05:36;;;;;;;8.48;3.30;;;;;;;37.02;21.14;102200.28;10368053;28;20037;-74
2022/08/10 12:10:36;;;;;;;6.63;3.50;;;;;;;36.70;21.69;102188.00;10425931;28;20086;-74
2022/08/10 12:15:45;;;;;;;8.02;3.20;;;;;;;36.38;20.69;102187.47;10424178;28;20607;-73
2022/08/10 12:20:49;;;;;;;5.40;2.80;;;;;;;36.29;19.49;102188.75;10405834;28;20124;-74
2022/08/10 12:26:06;;;;;;;7.20;3.35;;;;;;;36.28;19.44;102185.13;10390516;28;20485;-73
2022/08/10 12:31:08;;;;;;;7.82;3.85;;;;;;;36.64;20.02;102174.63;10425366;28;20405;-73
2022/08/10 12:36:27;;;;;;;6.82;4.10;;;;;;;36.30;20.24;102172.31;10407953;28;20069;-73
2022/08/10 12:41:38;;;;;;;6.13;3.83;;;;;;;36.47;20.81;102158.97;10409513;28;20059;-72
2022/08/10 12:46:56;;;;;;;9.50;4.38;;;;;;;36.65;20.30;102157.31;10408355;28;20035;-73
2022/08/10 12:52:14;;;;;;;7.35;4.00;;;;;;;36.94;20.00;102145.16;10424301;28;20672;-73
2022/08/10 12:57:16;;;;;;;9.10;4.22;;;;;;;36.62;21.13;102147.44;10426712;28;20550;-73
2022/08/10 13:02:24;;;;;;;9.50;4.03;;;;;;;36.38;20.64;102133.88;10407380;28;20565;-73
2022/08/10 13:07:26;;;;;;;7.55;3.97;;;;;;;36.82;21.26;102132.06;10406876;28;20033;-74
2022/08/10 13:12:29;;;;;;;8.30;3.33;;;;;;;36.58;19.50;102134.91;10405307;28;20099;-73
2022/08/10 13:17:31;;;;;;;6.20;3.40;;;;;;;35.66;20.17;102134.91;10402176;28;20041;-73
2022/08/10 13:22:32;;;;;;;7.85;2.95;;;;;;;36.15;19.77;102130.25;10405233;28;20040;-74
2022/08/10 13:27:40;;;;;;;5.53;3.70;;;;;;;35.48;20.89;102125.56;10420862;28;20377;-74
2022/08/10 13:32:42;;;;;;;4.85;2.90;;;;;;;35.88;19.54;102112.28;10423422;28;20124;-73
2022/08/10 13:37:44;;;;;;;7.05;3.03;;;;;;;36.95;18.62;102100.56;10404276;28;20055;-73
2022/08/10 13:42:45;;;;;;;5.15;3.63;;;;;;;36.16;18.89;102098.44;10387055;28;20033;-73
2022/08/10 13:47:47;;;;;;;3.95;2.83;;;;;;;36.06;18.91;102097.94;10422988;28;20066;-73
2022/08/10 13:52:52;;;;;;;5.93;2.45;;;;;;;36.54;17.78;102082.34;10422797;28;20131;-73
2022/08/10 13:58:01;;;;;;;5.70;2.95;;;;;;;36.66;19.54;102077.28;10381694;28;20045;-74
2022/08/10 14:03:10;;;;;;;5.28;3.78;;;;;;;37.08;17.73;102061.84;10365841;28;20045;-73
2022/08/10 14:08:13;;;;;;;4.10;2.60;;;;;;;36.31;18.25;102069.69;10367456;28;20057;-74
2022/08/10 14:13:13;;;;;;;4.90;2.67;;;;;;;35.56;20.85;102075.38;10371893;28;20061;-73
2022/08/10 14:18:14;;;;;;;10.05;2.70;;;;;;;35.71;20.48;102059.41;10389314;28;20065;-73
2022/08/10 14:23:15;;;;;;;6.82;2.95;;;;;;;36.03;19.72;102059.94;10372387;28;20030;-74
2022/08/10 14:28:17;;;;;;;6.05;2.83;;;;;;;36.61;18.65;102055.69;10420061;28;20051;-74
2022/08/10 14:33:18;;;;;;;3.95;2.80;;;;;;;36.26;19.07;102047.19;10411886;28;20044;-74
2022/08/10 14:38:19;;;;;;;8.07;2.83;;;;;;;36.03;18.57;102045.41;10427367;28;20056;-74
2022/08/10 14:43:23;;;;;;;5.80;2.55;;;;;;;35.82;19.68;102037.16;10412439;28;20044;-74
2022/08/10 14:48:27;;;;;;;5.15;2.80;;;;;;;36.08;18.83;102038.84;10429359;28;20040;-74
2022/08/10 14:53:31;;;;;;;10.27;6.70;;;;;;;35.52;19.40;102038.34;10411158;28;20456;-75
2022/08/10 14:58:35;;;;;;;6.53;2.85;;;;;;;34.89;19.16;102040.69;10429223;28;20485;-75
2022/08/10 15:03:38;;;;;;;6.25;3.17;;;;;;;34.26;20.43;102031.94;10427823;28;20118;-74
2022/08/10 15:08:38;;;;;;;7.00;2.80;;;;;;;33.89;20.41;102030.44;10410238;28;20416;-73
2022/08/10 15:13:46;;;;;;;10.68;2.60;;;;;;;33.92;21.24;102022.19;10425159;28;20132;-74
2022/08/10 15:18:47;;;;;;;5.45;2.67;;;;;;;33.81;21.24;102017.13;10427757;28;20041;-74
2022/08/10 15:23:51;;;;;;;;;;;;;;;33.37;21.08;102016.66;10408425;28;20029;-73
2022/08/10 15:28:56;;;;;;;4.35;2.88;;;;;;;33.01;21.34;102017.69;10426573;28;19928;-74
2022/08/10 15:39:25;;;;;;;6.10;2.83;;;;;;;31.78;23.48;102009.09;10429436;28;20040;-75
2022/08/10 15:44:38;;;;;;;6.40;2.83;;;;;;;30.70;26.70;102004.13;10409413;28;20408;-74
2022/08/10 15:50:29;;;;;;;8.15;3.38;;;;;;;30.26;25.97;101998.56;10385785;28;20485;-74
2022/08/10 15:55:33;;;;;;;5.53;3.00;;;;;;;29.80;26.51;101992.97;10348936;28;20578;-76
2022/08/10 16:00:37;;;;;;;6.30;2.40;;;;;;;29.50;26.64;101987.09;10393277;28;20033;-74
2022/08/10 16:05:48;;;;;;;4.35;2.28;;;;;;;29.31;27.42;101995.41;10383182;28;20041;-73
2022/08/10 16:10:55;;;;;;;6.47;3.28;;;;;;;29.25;27.96;101982.00;10394849;28;20034;-74
2022/08/10 16:15:57;;;;;;;6.68;2.10;;;;;;;29.12;28.95;101980.38;10374927;28;20033;-74
2022/08/10 16:20:59;;;;;;;5.07;2.30;;;;;;;29.08;28.56;101987.63;10420829;28;20041;-74
2022/08/10 16:26:11;;;;;;;7.80;2.40;;;;;;;28.95;27.76;101984.19;10406632;28;20045;-74
2022/08/10 16:31:19;;;;;;;12.60;3.58;;;;;;;28.75;28.21;101976.31;10396708;28;20071;-74
2022/08/10 16:36:20;;;;;;;3.97;3.17;;;;;;;28.64;29.75;101967.47;10420653;28;20409;-75
2022/08/10 16:41:23;;;;;;;8.93;2.97;;;;;;;28.56;28.12;101967.53;10422043;28;20041;-75
2022/08/10 16:46:24;;;;;;;8.73;2.13;;;;;;;28.39;28.94;101970.41;10424295;28;20040;-73
2022/08/10 16:51:24;;;;;;;8.03;2.50;;;;;;;28.34;29.13;101967.72;10441936;28;20523;-73
2022/08/10 16:56:34;;;;;;;15.27;3.33;;;;;;;28.18;31.23;101963.41;10395775;28;20115;-74
2022/08/10 17:01:38;;;;;;;5.63;2.50;;;;;;;28.12;30.33;101965.19;10447856;28;20349;-74
2022/08/10 17:06:47;;;;;;;4.90;2.20;;;;;;;28.01;30.15;101966.22;10440563;28;20037;-74
2022/08/10 17:11:50;;;;;;;5.80;3.15;;;;;;;27.88;33.27;101963.63;10407275;28;20110;-74
2022/08/10 17:17:01;;;;;;;4.35;2.10;;;;;;;27.78;29.47;101961.91;10389947;28;20052;-74
2022/08/10 17:22:07;;;;;;;5.90;2.50;;;;;;;27.64;34.74;101951.22;10342413;28;20034;-74
2022/08/10 17:27:08;;;;;;;3.55;2.55;;;;;;;27.36;32.28;101959.41;10326401;28;20045;-74
2022/08/10 17:33:01;;;;;;;3.57;2.50;;;;;;;27.16;34.13;101960.41;10325636;28;20122;-74
2022/08/10 17:38:25;;;;;;;4.97;2.05;;;;;;;26.78;34.21;101961.41;10381623;28;20050;-74
2022/08/10 17:43:26;;;;;;;6.28;2.38;;;;;;;26.30;38.55;101962.38;10381211;28;20044;-74
2022/08/10 17:48:32;;;;;;;5.97;2.23;;;;;;;26.11;36.71;101956.09;10372863;28;20040;-74
2022/08/10 17:53:46;;;;;;;7.47;2.78;;;;;;;25.95;37.43;101949.84;10375607;28;20037;-75
2022/08/10 17:58:58;;;;;;;6.00;1.92;;;;;;;25.83;35.89;101952.50;10390430;28;20048;-75
2022/08/10 18:04:01;;;;;;;9.07;2.70;;;;;;;25.49;38.24;101950.66;10349003;28;20482;-75
2022/08/10 18:09:10;;;;;;;9.55;2.97;;;;;;;25.27;38.34;101955.94;10366723;28;20034;-75
2022/08/10 18:14:10;;;;;;;7.70;1.85;;;;;;;25.07;40.19;101954.06;10365510;28;20038;-75
2022/08/10 18:19:14;;;;;;;9.67;2.13;;;;;;;25.06;39.30;101951.38;10331746;28;20053;-74
2022/08/10 18:24:16;;;;;;;4.93;2.22;;;;;;;24.84;40.50;101966.44;10353428;28;20034;-75
2022/08/10 18:29:23;;;;;;;;;;;;;;;24.44;42.76;101961.69;10427860;28;20696;-75
2022/08/10 18:34:23;;;;;;;5.43;1.90;;;;;;;23.98;43.08;101967.53;10405259;28;20380;-75
2022/08/10 18:39:30;;;;;;;4.90;2.50;;;;;;;23.72;44.39;101971.72;10371815;28;20072;-74
2022/08/10 18:44:33;;;;;;;6.43;2.20;;;;;;;23.24;46.19;101970.28;10372330;28;20079;-75
2022/08/10 18:49:52;;;;;;;5.97;1.80;;;;;;;22.76;48.18;101966.94;10411447;28;20037;-75
2022/08/10 18:54:59;;;;;;;5.13;2.42;;;;;;;22.37;48.59;101984.97;10388073;28;20033;-75
2022/08/10 19:00:19;;;;;;;6.75;2.25;;;;;;;22.03;49.43;101987.06;10354969;28;20041;-74
2022/08/10 19:05:38;;;;;;;5.28;2.95;;;;;;;21.64;50.11;101984.56;10371120;28;20504;-74
2022/08/10 19:11:06;;;;;;;2.70;1.98;;;;;;;21.35;50.88;101981.31;10405452;28;20089;-74
2022/08/10 19:16:35;;;;;;;6.47;2.13;;;;;;;21.07;51.26;101994.91;10342307;28;20473;-75
2022/08/10 19:21:43;;;;;;;6.40;2.40;;;;;;;20.77;52.25;101992.44;10389541;28;20040;-74
2022/08/10 19:27:19;;;;;;;9.43;2.83;;;;;;;20.46;53.20;101995.25;10351670;28;20038;-75
2022/08/10 19:32:26;;;;;;;11.35;3.53;;;;;;;20.23;54.19;102002.66;10316528;28;20548;-75
2022/08/10 19:37:45;;;;;;;7.95;2.03;;;;;;;20.05;54.44;102001.31;10362073;28;20046;-75
2022/08/10 19:42:56;;;;;;;4.35;2.35;;;;;;;19.87;55.76;102003.44;10347219;28;20496;-75
2022/08/10 19:48:09;;;;;;;5.07;3.00;;;;;;;19.61;56.59;102009.81;10361903;28;20041;-75
2022/08/10 19:53:09;;;;;;;6.68;2.22;;;;;;;19.40;57.78;102019.81;10364277;28;20125;-75
2022/08/10 19:58:20;;;;;;;4.22;2.10;;;;;;;19.30;58.09;102019.53;10407654;28;20036;-75
2022/08/10 20:03:25;;;;;;;2.92;1.88;;;;;;;19.15;58.28;102014.69;10402710;28;20078;-74
2022/08/10 20:08:48;;;;;;;8.07;3.10;;;;;;;19.05;58.42;102024.09;10442286;28;20428;-75
2022/08/10 20:14:16;;;;;;;6.25;3.08;;;;;;;18.99;59.10;102015.94;10400283;28;20128;-73
2022/08/10 20:19:28;;;;;;;8.50;2.80;;;;;;;18.87;59.58;102015.53;10395496;28;20038;-74
2022/08/10 20:24:53;;;;;;;5.32;1.75;;;;;;;18.76;58.89;102024.03;10404077;28;20542;-74
2022/08/10 20:30:05;;;;;;;3.95;2.38;;;;;;;18.85;58.42;102033.13;10442310;28;20508;-74
2022/08/10 20:35:24;;;;;;;4.85;3.60;;;;;;;18.67;58.83;102031.69;10443870;28;20044;-74
2022/08/10 20:40:31;;;;;;;4.22;2.40;;;;;;;18.51;59.28;102029.38;10395003;28;20068;-75
2022/08/10 20:46:04;;;;;;;6.18;2.72;;;;;;;18.39;59.86;102024.59;10409081;28;20508;-74
2022/08/10 20:51:07;;;;;;;4.78;2.92;;;;;;;18.36;60.32;102032.44;10417936;28;20088;-74
2022/08/10 20:56:21;;;;;;;7.57;2.30;;;;;;;18.29;60.40;102034.88;10407216;28;20067;-75
2022/08/10 21:01:49;;;;;;;5.15;2.55;;;;;;;18.07;60.54;102035.84;10442737;28;20049;-75
2022/08/10 21:07:20;;;;;;;4.85;2.03;;;;;;;17.98;61.26;102040.78;10440755;28;20047;-75
2022/08/10 21:12:33;;;;;;;4.72;2.22;;;;;;;17.91;61.04;102048.53;10421877;28;20033;-75
2022/08/10 21:17:45;;;;;;;4.53;2.15;;;;;;;17.85;60.80;102036.81;10422884;28;20128;-74
2022/08/10 21:22:46;;;;;;;4.75;2.22;;;;;;;17.75;61.32;102024.97;10384633;28;20037;-74
2022/08/10 23:07:15;;;;;;;6.97;3.80;;;;;;;16.61;67.32;102006.47;10368672;28;20473;-74
2022/08/10 23:12:19;;;;;;;10.20;4.93;;;;;;;16.61;67.65;102001.19;10382668;28;20041;-74
2022/08/10 23:22:48;;;;;;;10.02;5.65;;;;;;;16.43;68.35;102002.22;10413773;28;20040;-74
2022/08/10 23:27:49;;;;;;;7.15;4.80;;;;;;;16.41;69.60;101998.63;10410142;28;20484;-74
2022/08/10 23:32:50;;;;;;;10.50;5.15;;;;;;;16.43;68.82;102001.34;10410275;28;20124;-74
2022/08/10 23:37:54;;;;;;;10.00;4.87;;;;;;;16.61;67.23;101995.91;10427994;28;20111;-74
2022/08/10 23:42:55;;;;;;;9.02;4.88;;;;;;;16.55;68.03;101998.28;10386431;28;20044;-74
2022/08/10 23:47:57;;;;;;;11.57;5.75;;;;;;;16.41;68.63;101990.69;10385801;28;20105;-73
2022/08/10 23:52:59;;;;;;;11.40;7.03;;;;;;;16.27;68.97;101995.44;10403260;28;20379;-73
2022/08/10 23:58:07;;;;;;;10.02;6.97;;;;;;;16.17;69.51;101990.59;10402401;28;20401;-74
